sensor_id;sensor_type;location;lat;lon;timestamp;temperature;humidity
15997;DHT22;8103;51.340;12.326;2023-05-23T00:02:03;19.50;88.80
15997;DHT22;8103;51.340;12.326;2023-05-23T00:04:34;19.50;87.80
15997;DHT22;8103;51.340;12.326;2023-05-23T00:07:03;19.50;87.60
15997;DHT22;8103;51.340;12.326;2023-05-23T00:09:30;19.50;86.80
15997;DHT22;8103;51.340;12.326;2023-05-23T00:11:57;19.50;86.70
15997;DHT22;8103;51.340;12.326;2023-05-23T00:14:23;19.50;86.30
15997;DHT22;8103;51.340;12.326;2023-05-23T00:16:50;19.50;86.20
15997;DHT22;8103;51.340;12.326;2023-05-23T00:19:17;19.50;86.50
15997;DHT22;8103;51.340;12.326;2023-05-23T00:21:45;19.50;86.90
15997;DHT22;8103;51.340;12.326;2023-05-23T00:24:17;19.50;87.30
15997;DHT22;8103;51.340;12.326;2023-05-23T00:26:46;19.40;88.00
15997;DHT22;8103;51.340;12.326;2023-05-23T00:29:14;19.40;88.20
15997;DHT22;8103;51.340;12.326;2023-05-23T00:31:44;19.40;88.20
15997;DHT22;8103;51.340;12.326;2023-05-23T00:34:13;19.40;88.50
15997;DHT22;8103;51.340;12.326;2023-05-23T00:36:40;19.40;88.70
15997;DHT22;8103;51.340;12.326;2023-05-23T00:39:09;19.40;89.80
15997;DHT22;8103;51.340;12.326;2023-05-23T00:41:49;19.30;89.70
15997;DHT22;8103;51.340;12.326;2023-05-23T00:44:18;19.30;89.50
15997;DHT22;8103;51.340;12.326;2023-05-23T00:46:51;19.30;89.70
15997;DHT22;8103;51.340;12.326;2023-05-23T00:49:18;19.20;89.60
15997;DHT22;8103;51.340;12.326;2023-05-23T00:51:46;19.20;90.00
15997;DHT22;8103;51.340;12.326;2023-05-23T00:54:17;19.20;90.00
15997;DHT22;8103;51.340;12.326;2023-05-23T00:56:46;19.20;90.20
15997;DHT22;8103;51.340;12.326;2023-05-23T00:59:14;19.20;90.20
15997;DHT22;8103;51.340;12.326;2023-05-23T01:01:42;19.20;90.70
15997;DHT22;8103;51.340;12.326;2023-05-23T01:04:12;19.20;91.20
15997;DHT22;8103;51.340;12.326;2023-05-23T01:06:39;19.20;91.50
15997;DHT22;8103;51.340;12.326;2023-05-23T01:09:07;19.20;92.00
15997;DHT22;8103;51.340;12.326;2023-05-23T01:11:44;19.10;92.20
15997;DHT22;8103;51.340;12.326;2023-05-23T01:14:21;19.10;92.60
15997;DHT22;8103;51.340;12.326;2023-05-23T01:16:54;19.10;93.30
15997;DHT22;8103;51.340;12.326;2023-05-23T01:19:42;19.10;93.50
15997;DHT22;8103;51.340;12.326;2023-05-23T01:22:22;19.10;93.50
15997;DHT22;8103;51.340;12.326;2023-05-23T01:24:56;19.10;93.60
15997;DHT22;8103;51.340;12.326;2023-05-23T01:28:05;19.10;94.70
15997;DHT22;8103;51.340;12.326;2023-05-23T01:30:38;19.00;95.10
15997;DHT22;8103;51.340;12.326;2023-05-23T01:33:07;19.00;95.30
15997;DHT22;8103;51.340;12.326;2023-05-23T01:35:35;18.90;95.30
15997;DHT22;8103;51.340;12.326;2023-05-23T01:38:02;18.90;95.50
15997;DHT22;8103;51.340;12.326;2023-05-23T01:40:31;18.80;95.40
15997;DHT22;8103;51.340;12.326;2023-05-23T01:42:58;18.90;95.30
15997;DHT22;8103;51.340;12.326;2023-05-23T01:45:25;18.80;96.00
15997;DHT22;8103;51.340;12.326;2023-05-23T01:47:53;18.80;99.60
15997;DHT22;8103;51.340;12.326;2023-05-23T01:50:22;18.70;99.90
15997;DHT22;8103;51.340;12.326;2023-05-23T01:52:50;18.70;99.90
15997;DHT22;8103;51.340;12.326;2023-05-23T01:55:18;18.60;99.90
15997;DHT22;8103;51.340;12.326;2023-05-23T01:57:54;18.50;99.90
15997;DHT22;8103;51.340;12.326;2023-05-23T02:00:21;18.50;99.90
15997;DHT22;8103;51.340;12.326;2023-05-23T02:02:48;18.50;99.90
15997;DHT22;8103;51.340;12.326;2023-05-23T02:05:15;18.50;99.90
15997;DHT22;8103;51.340;12.326;2023-05-23T02:07:42;18.40;99.90
15997;DHT22;8103;51.340;12.326;2023-05-23T02:10:09;18.40;99.90
15997;DHT22;8103;51.340;12.326;2023-05-23T02:12:36;18.40;99.90
15997;DHT22;8103;51.340;12.326;2023-05-23T02:15:03;18.30;99.90
15997;DHT22;8103;51.340;12.326;2023-05-23T02:17:30;18.30;99.90
15997;DHT22;8103;51.340;12.326;2023-05-23T02:19:57;18.30;99.90
15997;DHT22;8103;51.340;12.326;2023-05-23T02:22:24;18.30;99.90
15997;DHT22;8103;51.340;12.326;2023-05-23T02:24:51;18.30;99.90
15997;DHT22;8103;51.340;12.326;2023-05-23T02:27:18;18.30;99.90
15997;DHT22;8103;51.340;12.326;2023-05-23T02:29:45;18.20;99.90
15997;DHT22;8103;51.340;12.326;2023-05-23T02:32:12;18.20;99.90
15997;DHT22;8103;51.340;12.326;2023-05-23T02:34:39;18.20;99.90
15997;DHT22;8103;51.340;12.326;2023-05-23T02:37:06;18.10;99.90
15997;DHT22;8103;51.340;12.326;2023-05-23T02:39:35;18.00;99.90
15997;DHT22;8103;51.340;12.326;2023-05-23T02:42:02;18.00;99.90
15997;DHT22;8103;51.340;12.326;2023-05-23T02:44:30;18.00;99.90
15997;DHT22;8103;51.340;12.326;2023-05-23T02:46:57;18.00;99.90
15997;DHT22;8103;51.340;12.326;2023-05-23T02:49:23;18.10;99.90
15997;DHT22;8103;51.340;12.326;2023-05-23T02:51:50;18.00;99.90
15997;DHT22;8103;51.340;12.326;2023-05-23T02:54:17;18.00;99.90
15997;DHT22;8103;51.340;12.326;2023-05-23T02:56:44;18.00;99.90
15997;DHT22;8103;51.340;12.326;2023-05-23T02:59:11;18.00;99.90
15997;DHT22;8103;51.340;12.326;2023-05-23T03:01:38;18.00;99.90
15997;DHT22;8103;51.340;12.326;2023-05-23T03:04:05;17.90;99.90
15997;DHT22;8103;51.340;12.326;2023-05-23T03:06:31;17.90;99.90
15997;DHT22;8103;51.340;12.326;2023-05-23T03:09:00;17.90;99.90
15997;DHT22;8103;51.340;12.326;2023-05-23T03:11:27;17.90;99.90
15997;DHT22;8103;51.340;12.326;2023-05-23T03:13:55;17.90;99.90
15997;DHT22;8103;51.340;12.326;2023-05-23T03:16:22;17.80;99.90
15997;DHT22;8103;51.340;12.326;2023-05-23T03:18:50;17.30;99.90
15997;DHT22;8103;51.340;12.326;2023-05-23T03:21:16;17.90;99.90
15997;DHT22;8103;51.340;12.326;2023-05-23T03:23:43;17.90;99.90
15997;DHT22;8103;51.340;12.326;2023-05-23T03:26:10;17.80;99.90
15997;DHT22;8103;51.340;12.326;2023-05-23T03:28:37;17.70;99.90
15997;DHT22;8103;51.340;12.326;2023-05-23T03:31:04;17.70;99.90
15997;DHT22;8103;51.340;12.326;2023-05-23T03:33:31;17.70;99.90
15997;DHT22;8103;51.340;12.326;2023-05-23T03:35:58;17.60;99.90
15997;DHT22;8103;51.340;12.326;2023-05-23T03:38:26;17.60;99.90
15997;DHT22;8103;51.340;12.326;2023-05-23T03:40:53;17.60;99.90
15997;DHT22;8103;51.340;12.326;2023-05-23T03:43:20;17.60;99.90
15997;DHT22;8103;51.340;12.326;2023-05-23T03:45:47;17.60;99.90
15997;DHT22;8103;51.340;12.326;2023-05-23T03:48:14;17.60;99.90
15997;DHT22;8103;51.340;12.326;2023-05-23T03:50:42;17.50;99.90
15997;DHT22;8103;51.340;12.326;2023-05-23T03:53:09;17.60;99.90
15997;DHT22;8103;51.340;12.326;2023-05-23T03:55:37;17.60;99.90
15997;DHT22;8103;51.340;12.326;2023-05-23T03:58:04;17.60;99.90
15997;DHT22;8103;51.340;12.326;2023-05-23T04:00:31;17.60;99.90
15997;DHT22;8103;51.340;12.326;2023-05-23T04:02:58;17.60;99.90
15997;DHT22;8103;51.340;12.326;2023-05-23T04:05:25;17.60;99.90
15997;DHT22;8103;51.340;12.326;2023-05-23T04:07:52;17.50;99.90
15997;DHT22;8103;51.340;12.326;2023-05-23T04:10:19;17.50;99.90
15997;DHT22;8103;51.340;12.326;2023-05-23T04:12:46;17.50;99.90
15997;DHT22;8103;51.340;12.326;2023-05-23T04:15:13;17.50;99.90
15997;DHT22;8103;51.340;12.326;2023-05-23T04:17:40;17.40;99.90
15997;DHT22;8103;51.340;12.326;2023-05-23T04:20:08;17.40;99.90
15997;DHT22;8103;51.340;12.326;2023-05-23T04:22:37;17.40;99.90
15997;DHT22;8103;51.340;12.326;2023-05-23T04:25:04;17.30;99.90
15997;DHT22;8103;51.340;12.326;2023-05-23T04:27:32;17.30;99.90
15997;DHT22;8103;51.340;12.326;2023-05-23T04:30:01;17.20;99.90
15997;DHT22;8103;51.340;12.326;2023-05-23T04:32:28;17.20;99.90
15997;DHT22;8103;51.340;12.326;2023-05-23T04:34:55;17.20;99.90
15997;DHT22;8103;51.340;12.326;2023-05-23T04:37:22;17.20;99.90
15997;DHT22;8103;51.340;12.326;2023-05-23T04:39:53;17.20;99.90
15997;DHT22;8103;51.340;12.326;2023-05-23T04:42:21;17.10;99.90
15997;DHT22;8103;51.340;12.326;2023-05-23T04:44:51;17.10;99.90
15997;DHT22;8103;51.340;12.326;2023-05-23T04:47:20;17.10;99.90
15997;DHT22;8103;51.340;12.326;2023-05-23T04:49:47;17.10;99.90
15997;DHT22;8103;51.340;12.326;2023-05-23T04:52:14;17.30;99.90
15997;DHT22;8103;51.340;12.326;2023-05-23T04:54:44;18.60;99.90
15997;DHT22;8103;51.340;12.326;2023-05-23T04:57:12;17.30;99.90
15997;DHT22;8103;51.340;12.326;2023-05-23T04:59:39;17.30;99.90
15997;DHT22;8103;51.340;12.326;2023-05-23T05:02:06;17.40;99.90
15997;DHT22;8103;51.340;12.326;2023-05-23T05:04:34;17.40;99.90
15997;DHT22;8103;51.340;12.326;2023-05-23T05:07:02;17.80;99.90
15997;DHT22;8103;51.340;12.326;2023-05-23T05:09:30;17.50;99.90
15997;DHT22;8103;51.340;12.326;2023-05-23T05:11:57;17.60;99.90
15997;DHT22;8103;51.340;12.326;2023-05-23T05:14:26;17.60;99.90
15997;DHT22;8103;51.340;12.326;2023-05-23T05:16:53;17.80;99.90
15997;DHT22;8103;51.340;12.326;2023-05-23T05:19:24;17.70;99.90
15997;DHT22;8103;51.340;12.326;2023-05-23T05:21:51;17.80;99.90
15997;DHT22;8103;51.340;12.326;2023-05-23T05:24:18;17.90;99.90
15997;DHT22;8103;51.340;12.326;2023-05-23T05:26:47;17.90;99.90
15997;DHT22;8103;51.340;12.326;2023-05-23T05:29:14;18.00;99.90
15997;DHT22;8103;51.340;12.326;2023-05-23T05:31:41;18.10;99.90
15997;DHT22;8103;51.340;12.326;2023-05-23T05:34:11;18.20;99.90
15997;DHT22;8103;51.340;12.326;2023-05-23T05:36:38;18.30;99.90
15997;DHT22;8103;51.340;12.326;2023-05-23T05:39:11;18.30;99.90
15997;DHT22;8103;51.340;12.326;2023-05-23T05:41:40;18.30;99.90
15997;DHT22;8103;51.340;12.326;2023-05-23T05:44:07;18.30;99.90
15997;DHT22;8103;51.340;12.326;2023-05-23T05:50:22;18.20;99.90
15997;DHT22;8103;51.340;12.326;2023-05-23T05:52:49;18.20;99.90
15997;DHT22;8103;51.340;12.326;2023-05-23T05:55:15;18.30;99.90
15997;DHT22;8103;51.340;12.326;2023-05-23T05:57:42;18.30;99.90
15997;DHT22;8103;51.340;12.326;2023-05-23T06:00:13;18.40;99.90
15997;DHT22;8103;51.340;12.326;2023-05-23T06:02:45;18.40;99.90
15997;DHT22;8103;51.340;12.326;2023-05-23T06:05:17;18.50;99.90
15997;DHT22;8103;51.340;12.326;2023-05-23T06:07:44;18.50;99.90
15997;DHT22;8103;51.340;12.326;2023-05-23T06:10:10;18.60;99.90
15997;DHT22;8103;51.340;12.326;2023-05-23T06:12:40;18.60;99.90
15997;DHT22;8103;51.340;12.326;2023-05-23T06:15:09;18.70;99.90
15997;DHT22;8103;51.340;12.326;2023-05-23T06:17:45;18.70;99.90
15997;DHT22;8103;51.340;12.326;2023-05-23T06:20:21;18.60;99.90
15997;DHT22;8103;51.340;12.326;2023-05-23T06:26:35;18.70;99.90
15997;DHT22;8103;51.340;12.326;2023-05-23T06:29:03;18.60;99.90
15997;DHT22;8103;51.340;12.326;2023-05-23T06:31:30;18.60;99.90
15997;DHT22;8103;51.340;12.326;2023-05-23T06:33:57;18.60;99.90
15997;DHT22;8103;51.340;12.326;2023-05-23T06:36:24;18.60;99.90
15997;DHT22;8103;51.340;12.326;2023-05-23T06:38:51;18.50;99.90
15997;DHT22;8103;51.340;12.326;2023-05-23T06:41:18;18.40;99.90
15997;DHT22;8103;51.340;12.326;2023-05-23T06:43:44;18.30;99.90
15997;DHT22;8103;51.340;12.326;2023-05-23T06:46:11;18.30;99.90
15997;DHT22;8103;51.340;12.326;2023-05-23T06:48:38;18.10;99.90
15997;DHT22;8103;51.340;12.326;2023-05-23T06:54:58;17.90;99.90
15997;DHT22;8103;51.340;12.326;2023-05-23T06:57:24;17.70;99.90
15997;DHT22;8103;51.340;12.326;2023-05-23T07:03:42;17.40;99.90
15997;DHT22;8103;51.340;12.326;2023-05-23T07:06:10;17.20;99.90
15997;DHT22;8103;51.340;12.326;2023-05-23T07:08:37;17.30;99.90
15997;DHT22;8103;51.340;12.326;2023-05-23T07:11:04;18.40;99.90
15997;DHT22;8103;51.340;12.326;2023-05-23T07:13:32;17.30;99.90
15997;DHT22;8103;51.340;12.326;2023-05-23T07:15:58;17.40;99.90
15997;DHT22;8103;51.340;12.326;2023-05-23T07:18:25;17.50;99.90
15997;DHT22;8103;51.340;12.326;2023-05-23T07:20:52;17.50;99.90
15997;DHT22;8103;51.340;12.326;2023-05-23T07:23:22;17.60;99.90
15997;DHT22;8103;51.340;12.326;2023-05-23T07:25:49;17.70;99.90
15997;DHT22;8103;51.340;12.326;2023-05-23T07:28:27;17.80;99.90
15997;DHT22;8103;51.340;12.326;2023-05-23T07:30:54;17.90;99.90
15997;DHT22;8103;51.340;12.326;2023-05-23T07:33:23;18.00;99.90
15997;DHT22;8103;51.340;12.326;2023-05-23T07:35:50;18.00;99.90
15997;DHT22;8103;51.340;12.326;2023-05-23T07:38:16;18.00;99.90
15997;DHT22;8103;51.340;12.326;2023-05-23T07:40:43;18.00;99.90
15997;DHT22;8103;51.340;12.326;2023-05-23T07:43:15;17.90;99.90
15997;DHT22;8103;51.340;12.326;2023-05-23T07:45:42;17.90;99.90
15997;DHT22;8103;51.340;12.326;2023-05-23T07:51:56;17.80;99.90
15997;DHT22;8103;51.340;12.326;2023-05-23T07:54:23;17.80;99.90
15997;DHT22;8103;51.340;12.326;2023-05-23T07:56:52;17.80;99.90
15997;DHT22;8103;51.340;12.326;2023-05-23T07:59:19;17.90;99.90
15997;DHT22;8103;51.340;12.326;2023-05-23T08:01:46;17.80;99.90
15997;DHT22;8103;51.340;12.326;2023-05-23T08:04:16;17.80;99.90
15997;DHT22;8103;51.340;12.326;2023-05-23T08:06:43;17.80;99.90
15997;DHT22;8103;51.340;12.326;2023-05-23T08:09:29;17.80;99.90
15997;DHT22;8103;51.340;12.326;2023-05-23T08:11:56;17.80;99.90
15997;DHT22;8103;51.340;12.326;2023-05-23T08:14:23;17.90;99.90
15997;DHT22;8103;51.340;12.326;2023-05-23T08:16:52;17.90;99.90
15997;DHT22;8103;51.340;12.326;2023-05-23T08:19:19;17.90;99.90
15997;DHT22;8103;51.340;12.326;2023-05-23T08:21:46;17.90;99.90
15997;DHT22;8103;51.340;12.326;2023-05-23T08:24:13;17.90;99.90
15997;DHT22;8103;51.340;12.326;2023-05-23T08:26:40;17.90;99.90
15997;DHT22;8103;51.340;12.326;2023-05-23T08:29:07;17.90;99.90
15997;DHT22;8103;51.340;12.326;2023-05-23T08:31:35;18.00;99.90
15997;DHT22;8103;51.340;12.326;2023-05-23T08:37:51;18.10;99.90
15997;DHT22;8103;51.340;12.326;2023-05-23T08:40:20;18.30;99.90
15997;DHT22;8103;51.340;12.326;2023-05-23T08:42:48;18.50;99.90
15997;DHT22;8103;51.340;12.326;2023-05-23T08:45:17;18.80;99.90
15997;DHT22;8103;51.340;12.326;2023-05-23T08:47:45;19.00;99.90
15997;DHT22;8103;51.340;12.326;2023-05-23T08:50:15;19.20;99.90
15997;DHT22;8103;51.340;12.326;2023-05-23T08:52:54;20.40;99.90
15997;DHT22;8103;51.340;12.326;2023-05-23T08:55:29;19.30;99.90
15997;DHT22;8103;51.340;12.326;2023-05-23T08:57:59;19.30;99.90
15997;DHT22;8103;51.340;12.326;2023-05-23T09:00:30;19.50;99.90
15997;DHT22;8103;51.340;12.326;2023-05-23T09:02:58;19.50;99.70
15997;DHT22;8103;51.340;12.326;2023-05-23T09:05:26;19.60;99.50
15997;DHT22;8103;51.340;12.326;2023-05-23T09:07:54;19.80;99.30
15997;DHT22;8103;51.340;12.326;2023-05-23T09:10:22;19.90;98.90
15997;DHT22;8103;51.340;12.326;2023-05-23T09:12:49;20.10;98.50
15997;DHT22;8103;51.340;12.326;2023-05-23T09:15:16;20.20;99.40
15997;DHT22;8103;51.340;12.326;2023-05-23T09:21:31;20.20;97.90
15997;DHT22;8103;51.340;12.326;2023-05-23T09:23:58;20.10;97.80
15997;DHT22;8103;51.340;12.326;2023-05-23T09:26:25;20.20;97.40
15997;DHT22;8103;51.340;12.326;2023-05-23T09:28:56;20.10;97.30
15997;DHT22;8103;51.340;12.326;2023-05-23T09:31:25;20.00;97.60
15997;DHT22;8103;51.340;12.326;2023-05-23T09:33:54;20.10;97.60
15997;DHT22;8103;51.340;12.326;2023-05-23T09:36:21;20.10;97.40
15997;DHT22;8103;51.340;12.326;2023-05-23T09:38:48;20.00;97.30
15997;DHT22;8103;51.340;12.326;2023-05-23T09:41:15;19.90;97.20
15997;DHT22;8103;51.340;12.326;2023-05-23T09:43:51;19.80;97.30
15997;DHT22;8103;51.340;12.326;2023-05-23T09:46:20;19.70;97.40
15997;DHT22;8103;51.340;12.326;2023-05-23T09:52:36;19.40;97.90
15997;DHT22;8103;51.340;12.326;2023-05-23T09:55:06;19.20;98.50
15997;DHT22;8103;51.340;12.326;2023-05-23T10:01:22;19.10;99.00
15997;DHT22;8103;51.340;12.326;2023-05-23T10:03:52;19.00;99.30
15997;DHT22;8103;51.340;12.326;2023-05-23T10:06:40;19.00;99.40
15997;DHT22;8103;51.340;12.326;2023-05-23T10:09:12;18.90;99.70
15997;DHT22;8103;51.340;12.326;2023-05-23T10:14:40;18.80;99.90
15997;DHT22;8103;51.340;12.326;2023-05-23T10:17:23;18.70;99.90
15997;DHT22;8103;51.340;12.326;2023-05-23T10:20:02;18.60;99.90
15997;DHT22;8103;51.340;12.326;2023-05-23T10:22:37;18.60;99.90
15997;DHT22;8103;51.340;12.326;2023-05-23T10:25:04;18.60;99.90
15997;DHT22;8103;51.340;12.326;2023-05-23T10:27:33;18.70;99.90
15997;DHT22;8103;51.340;12.326;2023-05-23T10:30:00;18.70;99.90
15997;DHT22;8103;51.340;12.326;2023-05-23T10:32:28;18.70;99.90
15997;DHT22;8103;51.340;12.326;2023-05-23T10:34:57;18.90;99.90
15997;DHT22;8103;51.340;12.326;2023-05-23T10:37:35;18.90;99.90
15997;DHT22;8103;51.340;12.326;2023-05-23T10:40:26;18.90;99.90
15997;DHT22;8103;51.340;12.326;2023-05-23T10:43:12;18.80;99.90
15997;DHT22;8103;51.340;12.326;2023-05-23T10:49:45;18.70;99.90
15997;DHT22;8103;51.340;12.326;2023-05-23T10:52:15;18.40;99.90
15997;DHT22;8103;51.340;12.326;2023-05-23T10:54:45;18.30;99.90
15997;DHT22;8103;51.340;12.326;2023-05-23T10:57:16;18.20;99.90
15997;DHT22;8103;51.340;12.326;2023-05-23T10:59:44;18.10;99.90
15997;DHT22;8103;51.340;12.326;2023-05-23T11:02:14;18.30;99.90
15997;DHT22;8103;51.340;12.326;2023-05-23T11:04:41;18.10;99.90
15997;DHT22;8103;51.340;12.326;2023-05-23T11:07:28;18.20;99.90
15997;DHT22;8103;51.340;12.326;2023-05-23T11:10:11;18.30;99.90
15997;DHT22;8103;51.340;12.326;2023-05-23T11:12:40;18.50;99.90
15997;DHT22;8103;51.340;12.326;2023-05-23T11:17:52;18.80;99.90
15997;DHT22;8103;51.340;12.326;2023-05-23T11:20:23;18.80;99.10
15997;DHT22;8103;51.340;12.326;2023-05-23T11:23:00;18.70;99.00
15997;DHT22;8103;51.340;12.326;2023-05-23T11:25:47;18.60;98.80
15997;DHT22;8103;51.340;12.326;2023-05-23T11:28:14;18.50;99.00
15997;DHT22;8103;51.340;12.326;2023-05-23T11:30:43;18.40;99.20
15997;DHT22;8103;51.340;12.326;2023-05-23T11:33:13;18.40;99.90
15997;DHT22;8103;51.340;12.326;2023-05-23T11:35:41;18.20;99.90
15997;DHT22;8103;51.340;12.326;2023-05-23T11:38:08;18.00;99.90
15997;DHT22;8103;51.340;12.326;2023-05-23T11:40:38;18.00;99.90
15997;DHT22;8103;51.340;12.326;2023-05-23T11:43:10;17.90;99.90
15997;DHT22;8103;51.340;12.326;2023-05-23T11:45:38;17.80;99.90
15997;DHT22;8103;51.340;12.326;2023-05-23T11:50:33;18.00;99.90
15997;DHT22;8103;51.340;12.326;2023-05-23T11:53:01;18.10;99.90
15997;DHT22;8103;51.340;12.326;2023-05-23T11:55:28;18.00;99.90
15997;DHT22;8103;51.340;12.326;2023-05-23T11:57:56;18.00;99.90
15997;DHT22;8103;51.340;12.326;2023-05-23T12:00:23;17.90;99.90
15997;DHT22;8103;51.340;12.326;2023-05-23T12:02:50;17.80;99.90
15997;DHT22;8103;51.340;12.326;2023-05-23T12:05:21;17.50;99.90
15997;DHT22;8103;51.340;12.326;2023-05-23T12:07:48;17.30;99.90
15997;DHT22;8103;51.340;12.326;2023-05-23T12:10:16;17.20;99.90
15997;DHT22;8103;51.340;12.326;2023-05-23T12:12:46;17.10;99.90
15997;DHT22;8103;51.340;12.326;2023-05-23T12:15:13;17.10;99.90
15997;DHT22;8103;51.340;12.326;2023-05-23T12:17:44;17.10;99.90
15997;DHT22;8103;51.340;12.326;2023-05-23T12:20:12;17.00;99.90
15997;DHT22;8103;51.340;12.326;2023-05-23T12:26:20;17.80;99.90
15997;DHT22;8103;51.340;12.326;2023-05-23T12:28:48;17.00;99.90
15997;DHT22;8103;51.340;12.326;2023-05-23T12:31:20;17.10;99.90
15997;DHT22;8103;51.340;12.326;2023-05-23T12:33:48;17.80;99.90
15997;DHT22;8103;51.340;12.326;2023-05-23T12:40:10;17.20;99.90
15997;DHT22;8103;51.340;12.326;2023-05-23T12:46:26;17.10;99.90
15997;DHT22;8103;51.340;12.326;2023-05-23T12:48:53;17.10;99.90
15997;DHT22;8103;51.340;12.326;2023-05-23T12:51:20;17.10;99.90
15997;DHT22;8103;51.340;12.326;2023-05-23T12:53:47;17.20;99.90
15997;DHT22;8103;51.340;12.326;2023-05-23T12:56:14;17.10;99.90
15997;DHT22;8103;51.340;12.326;2023-05-23T12:58:40;17.10;99.90
15997;DHT22;8103;51.340;12.326;2023-05-23T13:01:07;17.10;99.90
15997;DHT22;8103;51.340;12.326;2023-05-23T13:07:22;17.50;99.90
15997;DHT22;8103;51.340;12.326;2023-05-23T13:09:49;16.80;99.90
15997;DHT22;8103;51.340;12.326;2023-05-23T13:12:16;16.80;99.90
15997;DHT22;8103;51.340;12.326;2023-05-23T13:14:43;16.80;99.90
15997;DHT22;8103;51.340;12.326;2023-05-23T13:17:09;16.40;99.90
15997;DHT22;8103;51.340;12.326;2023-05-23T13:19:36;16.80;99.90
15997;DHT22;8103;51.340;12.326;2023-05-23T13:25:51;16.90;99.90
15997;DHT22;8103;51.340;12.326;2023-05-23T13:28:18;16.80;99.90
15997;DHT22;8103;51.340;12.326;2023-05-23T13:30:45;16.80;99.90
15997;DHT22;8103;51.340;12.326;2023-05-23T13:33:13;16.80;99.90
15997;DHT22;8103;51.340;12.326;2023-05-23T13:35:40;18.20;99.90
15997;DHT22;8103;51.340;12.326;2023-05-23T13:38:07;16.70;99.90
15997;DHT22;8103;51.340;12.326;2023-05-23T13:43:01;16.60;99.90
15997;DHT22;8103;51.340;12.326;2023-05-23T13:45:28;16.50;99.90
15997;DHT22;8103;51.340;12.326;2023-05-23T13:47:56;16.50;99.90
15997;DHT22;8103;51.340;12.326;2023-05-23T13:54:10;16.40;99.90
15997;DHT22;8103;51.340;12.326;2023-05-23T13:56:38;16.40;99.90
15997;DHT22;8103;51.340;12.326;2023-05-23T13:59:05;16.30;99.90
15997;DHT22;8103;51.340;12.326;2023-05-23T14:01:32;16.20;99.90
15997;DHT22;8103;51.340;12.326;2023-05-23T14:03:59;16.20;99.90
15997;DHT22;8103;51.340;12.326;2023-05-23T14:06:26;16.30;99.90
15997;DHT22;8103;51.340;12.326;2023-05-23T14:08:53;16.30;99.90
15997;DHT22;8103;51.340;12.326;2023-05-23T14:11:19;16.20;99.90
15997;DHT22;8103;51.340;12.326;2023-05-23T14:13:46;16.20;99.90
15997;DHT22;8103;51.340;12.326;2023-05-23T14:16:12;16.10;99.90
15997;DHT22;8103;51.340;12.326;2023-05-23T14:18:39;16.00;99.90
15997;DHT22;8103;51.340;12.326;2023-05-23T14:21:06;16.00;99.90
15997;DHT22;8103;51.340;12.326;2023-05-23T14:23:33;15.90;99.90
15997;DHT22;8103;51.340;12.326;2023-05-23T14:26:00;15.80;99.90
15997;DHT22;8103;51.340;12.326;2023-05-23T14:28:26;15.90;99.90
15997;DHT22;8103;51.340;12.326;2023-05-23T14:30:53;15.70;99.90
15997;DHT22;8103;51.340;12.326;2023-05-23T14:37:08;15.80;99.90
15997;DHT22;8103;51.340;12.326;2023-05-23T14:39:36;15.70;99.90
15997;DHT22;8103;51.340;12.326;2023-05-23T14:42:03;15.80;99.90
15997;DHT22;8103;51.340;12.326;2023-05-23T14:44:30;15.70;99.90
15997;DHT22;8103;51.340;12.326;2023-05-23T14:46:56;15.70;99.90
15997;DHT22;8103;51.340;12.326;2023-05-23T14:49:26;15.70;99.90
15997;DHT22;8103;51.340;12.326;2023-05-23T14:51:53;15.70;99.90
15997;DHT22;8103;51.340;12.326;2023-05-23T14:54:20;15.90;99.90
15997;DHT22;8103;51.340;12.326;2023-05-23T14:56:47;15.40;99.90
15997;DHT22;8103;51.340;12.326;2023-05-23T14:59:16;15.30;99.90
15997;DHT22;8103;51.340;12.326;2023-05-23T15:01:43;15.30;99.90
15997;DHT22;8103;51.340;12.326;2023-05-23T15:04:10;15.30;99.90
15997;DHT22;8103;51.340;12.326;2023-05-23T15:06:38;15.20;99.90
15997;DHT22;8103;51.340;12.326;2023-05-23T15:09:05;15.20;99.90
15997;DHT22;8103;51.340;12.326;2023-05-23T15:11:33;15.20;99.90
15997;DHT22;8103;51.340;12.326;2023-05-23T15:14:04;15.20;99.90
15997;DHT22;8103;51.340;12.326;2023-05-23T15:16:31;15.30;99.90
15997;DHT22;8103;51.340;12.326;2023-05-23T15:19:00;15.30;99.90
15997;DHT22;8103;51.340;12.326;2023-05-23T15:21:26;15.00;99.90
15997;DHT22;8103;51.340;12.326;2023-05-23T15:27:40;14.90;99.90
15997;DHT22;8103;51.340;12.326;2023-05-23T15:30:08;14.80;99.90
15997;DHT22;8103;51.340;12.326;2023-05-23T15:32:35;14.80;99.90
15997;DHT22;8103;51.340;12.326;2023-05-23T15:35:02;14.90;99.90
15997;DHT22;8103;51.340;12.326;2023-05-23T15:37:29;14.90;99.90
15997;DHT22;8103;51.340;12.326;2023-05-23T15:39:57;14.90;99.90
15997;DHT22;8103;51.340;12.326;2023-05-23T15:42:24;14.90;99.90
15997;DHT22;8103;51.340;12.326;2023-05-23T15:44:50;14.80;99.90
15997;DHT22;8103;51.340;12.326;2023-05-23T15:47:18;14.70;99.90
15997;DHT22;8103;51.340;12.326;2023-05-23T15:49:46;14.60;99.90
15997;DHT22;8103;51.340;12.326;2023-05-23T15:52:13;14.70;99.90
15997;DHT22;8103;51.340;12.326;2023-05-23T15:54:39;14.70;99.90
15997;DHT22;8103;51.340;12.326;2023-05-23T15:57:08;14.70;99.90
15997;DHT22;8103;51.340;12.326;2023-05-23T15:59:41;14.70;99.90
15997;DHT22;8103;51.340;12.326;2023-05-23T16:02:08;14.50;99.90
15997;DHT22;8103;51.340;12.326;2023-05-23T16:04:36;14.50;99.90
15997;DHT22;8103;51.340;12.326;2023-05-23T16:07:04;14.40;99.90
15997;DHT22;8103;51.340;12.326;2023-05-23T16:09:31;14.40;99.90
15997;DHT22;8103;51.340;12.326;2023-05-23T16:11:57;14.30;99.90
15997;DHT22;8103;51.340;12.326;2023-05-23T16:14:24;14.20;99.90
15997;DHT22;8103;51.340;12.326;2023-05-23T16:16:51;14.20;99.90
15997;DHT22;8103;51.340;12.326;2023-05-23T16:19:19;14.10;99.90
15997;DHT22;8103;51.340;12.326;2023-05-23T16:21:46;13.90;99.90
15997;DHT22;8103;51.340;12.326;2023-05-23T16:24:13;14.00;99.90
15997;DHT22;8103;51.340;12.326;2023-05-23T16:26:39;13.90;99.90
15997;DHT22;8103;51.340;12.326;2023-05-23T16:29:06;13.90;99.90
15997;DHT22;8103;51.340;12.326;2023-05-23T16:31:33;13.90;99.90
15997;DHT22;8103;51.340;12.326;2023-05-23T16:34:01;13.90;99.90
15997;DHT22;8103;51.340;12.326;2023-05-23T16:36:28;14.00;99.90
15997;DHT22;8103;51.340;12.326;2023-05-23T16:38:54;13.90;99.90
15997;DHT22;8103;51.340;12.326;2023-05-23T16:41:22;13.90;99.90
15997;DHT22;8103;51.340;12.326;2023-05-23T16:43:48;14.00;99.90
15997;DHT22;8103;51.340;12.326;2023-05-23T16:46:15;14.00;99.90
15997;DHT22;8103;51.340;12.326;2023-05-23T16:48:45;14.10;99.90
15997;DHT22;8103;51.340;12.326;2023-05-23T16:51:12;14.10;99.90
15997;DHT22;8103;51.340;12.326;2023-05-23T16:53:39;14.10;99.90
15997;DHT22;8103;51.340;12.326;2023-05-23T16:59:53;14.10;99.90
15997;DHT22;8103;51.340;12.326;2023-05-23T17:02:20;13.90;99.90